sensor_id;sensor_type;location;lat;lon;timestamp;pressure;altitude;pressure_sealevel;temperature;humidity
6134;BME280;3098;42.678;23.364;2023-08-08T00:00:46;94856.44;;;15.47;100.00
6134;BME280;3098;42.678;23.364;2023-08-08T00:03:13;94861.88;;;15.51;100.00
6134;BME280;3098;42.678;23.364;2023-08-08T00:05:40;94868.13;;;15.55;100.00
6134;BME280;3098;42.678;23.364;2023-08-08T00:08:07;94840.06;;;15.37;100.00
6134;BME280;3098;42.678;23.364;2023-08-08T00:10:35;94805.38;;;15.13;100.00
6134;BME280;3098;42.678;23.364;2023-08-08T00:13:02;94866.56;;;15.54;100.00
6134;BME280;3098;42.678;23.364;2023-08-08T00:15:30;94855.50;;;15.56;100.00
6134;BME280;3098;42.678;23.364;2023-08-08T00:17:58;94848.47;;;15.63;100.00
6134;BME280;3098;42.678;23.364;2023-08-08T00:20:25;94798.38;;;15.20;100.00
6134;BME280;3098;42.678;23.364;2023-08-08T00:22:52;94853.63;;;15.56;100.00
6134;BME280;3098;42.678;23.364;2023-08-08T00:25:19;94852.84;;;15.56;100.00
6134;BME280;3098;42.678;23.364;2023-08-08T00:27:48;94848.94;;;15.53;100.00
6134;BME280;3098;42.678;23.364;2023-08-08T00:30:16;94719.94;;;14.73;100.00
6134;BME280;3098;42.678;23.364;2023-08-08T00:32:43;94873.78;;;15.53;100.00
6134;BME280;3098;42.678;23.364;2023-08-08T00:35:10;94822.25;;;15.41;100.00
6134;BME280;3098;42.678;23.364;2023-08-08T00:37:37;94862.41;;;15.57;100.00
6134;BME280;3098;42.678;23.364;2023-08-08T00:40:05;94855.50;;;15.56;100.00
6134;BME280;3098;42.678;23.364;2023-08-08T00:42:33;94853.50;;;15.52;100.00
6134;BME280;3098;42.678;23.364;2023-08-08T00:45:01;94817.66;;;15.41;100.00
6134;BME280;3098;42.678;23.364;2023-08-08T00:47:30;94812.19;;;15.50;100.00
6134;BME280;3098;42.678;23.364;2023-08-08T00:49:57;94830.25;;;15.53;100.00
6134;BME280;3098;42.678;23.364;2023-08-08T00:52:24;94860.81;;;15.68;100.00
6134;BME280;3098;42.678;23.364;2023-08-08T00:54:52;94800.31;;;15.35;100.00
6134;BME280;3098;42.678;23.364;2023-08-08T00:57:19;94862.13;;;15.74;100.00
6134;BME280;3098;42.678;23.364;2023-08-08T00:59:46;94826.31;;;15.63;100.00
6134;BME280;3098;42.678;23.364;2023-08-08T01:02:15;94853.63;;;15.84;100.00
6134;BME280;3098;42.678;23.364;2023-08-08T01:04:42;94846.72;;;15.83;100.00
6134;BME280;3098;42.678;23.364;2023-08-08T01:07:15;94847.97;;;15.73;100.00
6134;BME280;3098;42.678;23.364;2023-08-08T01:09:48;94799.97;;;15.37;100.00
6134;BME280;3098;42.678;23.364;2023-08-08T01:12:19;94788.22;;;15.26;100.00
6134;BME280;3098;42.678;23.364;2023-08-08T01:14:46;94787.81;;;15.12;100.00
6134;BME280;3098;42.678;23.364;2023-08-08T01:17:15;94788.47;;;15.21;100.00
6134;BME280;3098;42.678;23.364;2023-08-08T01:19:43;94860.63;;;15.61;100.00
6134;BME280;3098;42.678;23.364;2023-08-08T01:22:17;94793.84;;;15.09;100.00
6134;BME280;3098;42.678;23.364;2023-08-08T01:24:49;94785.53;;;14.98;100.00
6134;BME280;3098;42.678;23.364;2023-08-08T01:27:16;94834.38;;;15.38;100.00
6134;BME280;3098;42.678;23.364;2023-08-08T01:29:43;94851.97;;;15.51;100.00
6134;BME280;3098;42.678;23.364;2023-08-08T01:32:10;94860.19;;;15.59;100.00
6134;BME280;3098;42.678;23.364;2023-08-08T01:34:37;94816.53;;;15.15;100.00
6134;BME280;3098;42.678;23.364;2023-08-08T01:37:09;94837.72;;;15.35;100.00
6134;BME280;3098;42.678;23.364;2023-08-08T01:39:38;94778.50;;;14.93;100.00
6134;BME280;3098;42.678;23.364;2023-08-08T01:42:08;94872.78;;;15.46;100.00
6134;BME280;3098;42.678;23.364;2023-08-08T01:44:37;94876.50;;;15.29;100.00
6134;BME280;3098;42.678;23.364;2023-08-08T01:47:06;94893.63;;;15.40;100.00
6134;BME280;3098;42.678;23.364;2023-08-08T01:49:33;94900.31;;;15.34;100.00
6134;BME280;3098;42.678;23.364;2023-08-08T01:52:00;94851.94;;;15.00;100.00
6134;BME280;3098;42.678;23.364;2023-08-08T01:54:27;94896.44;;;15.32;100.00
6134;BME280;3098;42.678;23.364;2023-08-08T01:56:54;94834.03;;;14.76;100.00
6134;BME280;3098;42.678;23.364;2023-08-08T01:59:22;94855.75;;;14.86;100.00
6134;BME280;3098;42.678;23.364;2023-08-08T02:01:49;94861.53;;;14.88;100.00
6134;BME280;3098;42.678;23.364;2023-08-08T02:04:17;94865.41;;;14.91;100.00
6134;BME280;3098;42.678;23.364;2023-08-08T02:06:44;94917.69;;;15.28;100.00
6134;BME280;3098;42.678;23.364;2023-08-08T02:09:11;94839.97;;;14.69;100.00
6134;BME280;3098;42.678;23.364;2023-08-08T02:11:39;94863.19;;;14.93;100.00
6134;BME280;3098;42.678;23.364;2023-08-08T02:14:06;94881.44;;;14.91;100.00
6134;BME280;3098;42.678;23.364;2023-08-08T02:16:35;94874.44;;;14.86;100.00
6134;BME280;3098;42.678;23.364;2023-08-08T02:19:02;94804.56;;;14.24;100.00
6134;BME280;3098;42.678;23.364;2023-08-08T02:21:29;94934.63;;;15.08;100.00
6134;BME280;3098;42.678;23.364;2023-08-08T02:23:56;94938.75;;;15.06;100.00
6134;BME280;3098;42.678;23.364;2023-08-08T02:26:25;94941.53;;;15.09;100.00
6134;BME280;3098;42.678;23.364;2023-08-08T02:28:51;94859.53;;;14.49;100.00
6134;BME280;3098;42.678;23.364;2023-08-08T02:31:18;94953.56;;;15.03;100.00
6134;BME280;3098;42.678;23.364;2023-08-08T02:33:49;94955.22;;;15.08;100.00
6134;BME280;3098;42.678;23.364;2023-08-08T02:36:17;94945.63;;;15.19;100.00
6134;BME280;3098;42.678;23.364;2023-08-08T02:38:44;94940.28;;;15.19;100.00
6134;BME280;3098;42.678;23.364;2023-08-08T02:41:11;94927.84;;;15.11;100.00
6134;BME280;3098;42.678;23.364;2023-08-08T02:43:38;94952.44;;;15.16;100.00
6134;BME280;3098;42.678;23.364;2023-08-08T02:46:06;94911.06;;;14.98;100.00
6134;BME280;3098;42.678;23.364;2023-08-08T02:48:33;94955.88;;;15.29;100.00
6134;BME280;3098;42.678;23.364;2023-08-08T02:51:01;94975.69;;;15.28;100.00
6134;BME280;3098;42.678;23.364;2023-08-08T02:53:28;94970.25;;;15.24;100.00
6134;BME280;3098;42.678;23.364;2023-08-08T02:55:55;94976.16;;;15.18;100.00
6134;BME280;3098;42.678;23.364;2023-08-08T02:58:22;94755.94;;;13.70;100.00
6134;BME280;3098;42.678;23.364;2023-08-08T03:00:49;94916.81;;;14.76;100.00
6134;BME280;3098;42.678;23.364;2023-08-08T03:03:16;94889.88;;;14.57;100.00
6134;BME280;3098;42.678;23.364;2023-08-08T03:05:44;94967.13;;;15.10;100.00
6134;BME280;3098;42.678;23.364;2023-08-08T03:08:12;94945.31;;;14.96;100.00
6134;BME280;3098;42.678;23.364;2023-08-08T03:10:39;94970.25;;;15.24;100.00
6134;BME280;3098;42.678;23.364;2023-08-08T03:13:07;94965.13;;;15.31;100.00
6134;BME280;3098;42.678;23.364;2023-08-08T03:15:34;94976.59;;;15.32;100.00
6134;BME280;3098;42.678;23.364;2023-08-08T03:18:01;94979.16;;;15.16;100.00
6134;BME280;3098;42.678;23.364;2023-08-08T03:20:28;94924.94;;;14.79;100.00
6134;BME280;3098;42.678;23.364;2023-08-08T03:22:55;94804.91;;;14.10;100.00
6134;BME280;3098;42.678;23.364;2023-08-08T03:25:24;94893.78;;;14.71;100.00
6134;BME280;3098;42.678;23.364;2023-08-08T03:27:51;94984.28;;;15.33;100.00
6134;BME280;3098;42.678;23.364;2023-08-08T03:30:18;94976.47;;;15.28;100.00
6134;BME280;3098;42.678;23.364;2023-08-08T03:32:45;94971.47;;;15.27;100.00
6134;BME280;3098;42.678;23.364;2023-08-08T03:35:12;94980.72;;;15.29;100.00
6134;BME280;3098;42.678;23.364;2023-08-08T03:37:40;94983.47;;;15.33;100.00
6134;BME280;3098;42.678;23.364;2023-08-08T03:40:07;94962.44;;;15.07;100.00
6134;BME280;3098;42.678;23.364;2023-08-08T03:42:36;94988.19;;;15.24;100.00
6134;BME280;3098;42.678;23.364;2023-08-08T03:45:04;94855.66;;;14.47;100.00
6134;BME280;3098;42.678;23.364;2023-08-08T03:47:31;94989.84;;;15.28;100.00
6134;BME280;3098;42.678;23.364;2023-08-08T03:49:58;94895.25;;;14.69;100.00
6134;BME280;3098;42.678;23.364;2023-08-08T03:52:25;94984.81;;;15.27;100.00
6134;BME280;3098;42.678;23.364;2023-08-08T03:54:52;94881.66;;;14.62;100.00
6134;BME280;3098;42.678;23.364;2023-08-08T03:57:19;94533.91;;;12.52;100.00
6134;BME280;3098;42.678;23.364;2023-08-08T03:59:47;94976.41;;;15.49;100.00
6134;BME280;3098;42.678;23.364;2023-08-08T04:02:14;94969.69;;;15.43;100.00
6134;BME280;3098;42.678;23.364;2023-08-08T04:04:41;94979.59;;;15.42;100.00
6134;BME280;3098;42.678;23.364;2023-08-08T04:07:08;94885.47;;;14.73;100.00
6134;BME280;3098;42.678;23.364;2023-08-08T04:09:35;94993.53;;;15.48;100.00
6134;BME280;3098;42.678;23.364;2023-08-08T04:12:03;94980.72;;;15.29;100.00
6134;BME280;3098;42.678;23.364;2023-08-08T04:14:30;95012.47;;;15.55;100.00
6134;BME280;3098;42.678;23.364;2023-08-08T04:16:59;94984.94;;;15.30;100.00
6134;BME280;3098;42.678;23.364;2023-08-08T04:19:26;94971.38;;;15.23;100.00
6134;BME280;3098;42.678;23.364;2023-08-08T04:21:53;94956.78;;;15.09;100.00
6134;BME280;3098;42.678;23.364;2023-08-08T04:24:21;94990.75;;;15.32;100.00
6134;BME280;3098;42.678;23.364;2023-08-08T04:26:48;94983.50;;;15.21;100.00
6134;BME280;3098;42.678;23.364;2023-08-08T04:29:15;94946.75;;;14.93;100.00
6134;BME280;3098;42.678;23.364;2023-08-08T04:31:42;95002.09;;;15.17;100.00
6134;BME280;3098;42.678;23.364;2023-08-08T04:34:11;94813.00;;;14.02;100.00
6134;BME280;3098;42.678;23.364;2023-08-08T04:36:38;94974.59;;;15.05;100.00
6134;BME280;3098;42.678;23.364;2023-08-08T04:39:05;94979.59;;;15.06;100.00
6134;BME280;3098;42.678;23.364;2023-08-08T04:41:33;94987.28;;;15.20;100.00
6134;BME280;3098;42.678;23.364;2023-08-08T04:44:00;94942.88;;;15.03;100.00
6134;BME280;3098;42.678;23.364;2023-08-08T04:46:27;95013.47;;;15.63;100.00
6134;BME280;3098;42.678;23.364;2023-08-08T04:48:54;94962.56;;;15.59;100.00
6134;BME280;3098;42.678;23.364;2023-08-08T04:51:23;94975.75;;;15.92;100.00
6134;BME280;3098;42.678;23.364;2023-08-08T04:53:50;94983.63;;;16.00;100.00
6134;BME280;3098;42.678;23.364;2023-08-08T04:56:17;94957.22;;;15.99;100.00
6134;BME280;3098;42.678;23.364;2023-08-08T04:58:45;95028.69;;;16.26;100.00
6134;BME280;3098;42.678;23.364;2023-08-08T05:01:12;95030.41;;;16.06;100.00
6134;BME280;3098;42.678;23.364;2023-08-08T05:03:41;95033.22;;;15.98;100.00
6134;BME280;3098;42.678;23.364;2023-08-08T05:06:08;94975.47;;;15.69;100.00
6134;BME280;3098;42.678;23.364;2023-08-08T05:08:37;95027.72;;;16.19;100.00
6134;BME280;3098;42.678;23.364;2023-08-08T05:11:04;95053.13;;;16.52;100.00
6134;BME280;3098;42.678;23.364;2023-08-08T05:13:31;94974.78;;;16.83;100.00
6134;BME280;3098;42.678;23.364;2023-08-08T05:15:57;95078.88;;;18.25;100.00
6134;BME280;3098;42.678;23.364;2023-08-08T05:18:25;94956.09;;;18.03;100.00
6134;BME280;3098;42.678;23.364;2023-08-08T05:20:52;94957.03;;;18.72;100.00
6134;BME280;3098;42.678;23.364;2023-08-08T05:23:19;94913.16;;;18.64;100.00
6134;BME280;3098;42.678;23.364;2023-08-08T05:25:48;95043.25;;;19.50;100.00
6134;BME280;3098;42.678;23.364;2023-08-08T05:28:16;95028.06;;;20.44;100.00
6134;BME280;3098;42.678;23.364;2023-08-08T05:30:43;95089.22;;;21.03;95.55
6134;BME280;3098;42.678;23.364;2023-08-08T05:33:10;95027.66;;;19.86;99.62
6134;BME280;3098;42.678;23.364;2023-08-08T05:35:37;95076.91;;;19.64;100.00
6134;BME280;3098;42.678;23.364;2023-08-08T05:38:05;95085.09;;;20.79;98.39
6134;BME280;3098;42.678;23.364;2023-08-08T05:40:34;94973.47;;;20.50;92.17
6134;BME280;3098;42.678;23.364;2023-08-08T05:43:03;95035.09;;;21.69;88.04
6134;BME280;3098;42.678;23.364;2023-08-08T05:45:30;95029.16;;;22.73;78.83
6134;BME280;3098;42.678;23.364;2023-08-08T05:47:58;95040.47;;;23.28;74.22
6134;BME280;3098;42.678;23.364;2023-08-08T05:50:29;95065.28;;;23.40;72.46
6134;BME280;3098;42.678;23.364;2023-08-08T05:52:56;95123.41;;;22.78;72.60
6134;BME280;3098;42.678;23.364;2023-08-08T05:55:23;95109.91;;;21.29;81.87
6134;BME280;3098;42.678;23.364;2023-08-08T05:57:51;95117.31;;;22.26;77.04
6134;BME280;3098;42.678;23.364;2023-08-08T06:00:20;95106.84;;;22.86;74.44
6134;BME280;3098;42.678;23.364;2023-08-08T06:02:47;95082.69;;;23.68;68.59
6134;BME280;3098;42.678;23.364;2023-08-08T06:05:17;95073.44;;;22.54;71.53
6134;BME280;3098;42.678;23.364;2023-08-08T06:07:44;95129.81;;;22.49;72.30
6134;BME280;3098;42.678;23.364;2023-08-08T06:10:11;95182.69;;;23.15;71.31
6134;BME280;3098;42.678;23.364;2023-08-08T06:12:39;95069.13;;;23.43;66.78
6134;BME280;3098;42.678;23.364;2023-08-08T06:15:07;95120.22;;;24.33;65.69
6134;BME280;3098;42.678;23.364;2023-08-08T06:17:35;95119.06;;;24.30;65.57
6134;BME280;3098;42.678;23.364;2023-08-08T06:20:04;95075.94;;;22.15;68.79
6134;BME280;3098;42.678;23.364;2023-08-08T06:22:32;94904.91;;;19.81;75.37
6134;BME280;3098;42.678;23.364;2023-08-08T06:25:00;95081.84;;;21.81;74.38
6134;BME280;3098;42.678;23.364;2023-08-08T06:27:27;95120.44;;;23.04;69.25
6134;BME280;3098;42.678;23.364;2023-08-08T06:29:54;95058.72;;;23.84;65.34
6134;BME280;3098;42.678;23.364;2023-08-08T06:32:22;94939.91;;;23.86;61.29
6134;BME280;3098;42.678;23.364;2023-08-08T06:34:51;95104.44;;;25.29;58.24
6134;BME280;3098;42.678;23.364;2023-08-08T06:37:18;95067.59;;;24.23;58.86
6134;BME280;3098;42.678;23.364;2023-08-08T06:39:45;95037.34;;;24.39;58.77
6134;BME280;3098;42.678;23.364;2023-08-08T06:42:12;94966.91;;;24.21;57.39
6134;BME280;3098;42.678;23.364;2023-08-08T06:44:43;95114.09;;;25.26;56.00
6134;BME280;3098;42.678;23.364;2023-08-08T06:47:11;95119.06;;;25.49;56.82
6134;BME280;3098;42.678;23.364;2023-08-08T06:49:38;94823.25;;;24.25;54.99
6134;BME280;3098;42.678;23.364;2023-08-08T06:52:07;95099.34;;;24.26;57.10
6134;BME280;3098;42.678;23.364;2023-08-08T06:54:34;95121.88;;;22.80;61.67
6134;BME280;3098;42.678;23.364;2023-08-08T06:57:01;95055.25;;;22.41;63.54
6134;BME280;3098;42.678;23.364;2023-08-08T06:59:30;94990.22;;;22.02;62.25
6134;BME280;3098;42.678;23.364;2023-08-08T07:01:57;94922.16;;;21.17;61.46
6134;BME280;3098;42.678;23.364;2023-08-08T07:04:25;94995.81;;;20.88;64.26
6134;BME280;3098;42.678;23.364;2023-08-08T07:06:52;95123.47;;;20.39;66.49
6134;BME280;3098;42.678;23.364;2023-08-08T07:09:21;95061.91;;;20.75;65.32
6134;BME280;3098;42.678;23.364;2023-08-08T07:11:48;95116.31;;;21.94;61.95
6134;BME280;3098;42.678;23.364;2023-08-08T07:14:15;95025.94;;;21.85;59.14
6134;BME280;3098;42.678;23.364;2023-08-08T07:16:42;95091.09;;;23.10;56.94
6134;BME280;3098;42.678;23.364;2023-08-08T07:19:09;95124.91;;;24.11;54.48
6134;BME280;3098;42.678;23.364;2023-08-08T07:21:37;95145.72;;;24.67;53.16
6134;BME280;3098;42.678;23.364;2023-08-08T07:24:04;95126.78;;;24.49;52.81
6134;BME280;3098;42.678;23.364;2023-08-08T07:26:33;95117.78;;;24.91;52.35
6134;BME280;3098;42.678;23.364;2023-08-08T07:29:00;94992.50;;;23.99;50.62
6134;BME280;3098;42.678;23.364;2023-08-08T07:31:27;95098.16;;;25.35;49.57
6134;BME280;3098;42.678;23.364;2023-08-08T07:33:55;94917.53;;;23.57;49.53
6134;BME280;3098;42.678;23.364;2023-08-08T07:36:22;95132.31;;;25.36;48.99
6134;BME280;3098;42.678;23.364;2023-08-08T07:38:49;94895.44;;;23.73;47.19
6134;BME280;3098;42.678;23.364;2023-08-08T07:41:16;95132.41;;;25.15;48.00
6134;BME280;3098;42.678;23.364;2023-08-08T07:43:46;94859.25;;;24.25;46.83
6134;BME280;3098;42.678;23.364;2023-08-08T07:46:13;94921.78;;;23.05;46.63
6134;BME280;3098;42.678;23.364;2023-08-08T07:48:40;95022.34;;;23.42;47.74
6134;BME280;3098;42.678;23.364;2023-08-08T07:51:08;95069.16;;;24.21;48.01
6134;BME280;3098;42.678;23.364;2023-08-08T07:53:35;95133.44;;;26.01;44.97
6134;BME280;3098;42.678;23.364;2023-08-08T07:56:02;94944.44;;;25.00;43.72
6134;BME280;3098;42.678;23.364;2023-08-08T07:58:31;95077.28;;;24.07;47.37
6134;BME280;3098;42.678;23.364;2023-08-08T08:01:00;95126.34;;;23.41;49.40
6134;BME280;3098;42.678;23.364;2023-08-08T08:03:28;95065.06;;;22.73;49.55
6134;BME280;3098;42.678;23.364;2023-08-08T08:05:55;95107.09;;;24.14;48.38
6134;BME280;3098;42.678;23.364;2023-08-08T08:08:23;95116.66;;;24.68;46.64
6134;BME280;3098;42.678;23.364;2023-08-08T08:10:51;94974.28;;;24.21;46.02
6134;BME280;3098;42.678;23.364;2023-08-08T08:13:18;94889.09;;;24.18;45.28
6134;BME280;3098;42.678;23.364;2023-08-08T08:15:46;95116.25;;;26.18;43.83
6134;BME280;3098;42.678;23.364;2023-08-08T08:18:15;94995.97;;;25.07;44.75
6134;BME280;3098;42.678;23.364;2023-08-08T08:20:43;95079.09;;;25.97;43.35
6134;BME280;3098;42.678;23.364;2023-08-08T08:23:11;94994.53;;;24.89;43.88
6134;BME280;3098;42.678;23.364;2023-08-08T08:25:38;95122.81;;;26.99;42.30
6134;BME280;3098;42.678;23.364;2023-08-08T08:28:05;95044.47;;;26.46;42.57
6134;BME280;3098;42.678;23.364;2023-08-08T08:30:33;95134.16;;;26.56;42.42
6134;BME280;3098;42.678;23.364;2023-08-08T08:33:02;95052.81;;;25.84;42.60
6134;BME280;3098;42.678;23.364;2023-08-08T08:35:31;95091.09;;;25.52;43.39
6134;BME280;3098;42.678;23.364;2023-08-08T08:37:58;95062.06;;;25.42;43.41
6134;BME280;3098;42.678;23.364;2023-08-08T08:40:27;95133.06;;;26.47;43.26
6134;BME280;3098;42.678;23.364;2023-08-08T08:42:55;95137.28;;;26.92;42.07
6134;BME280;3098;42.678;23.364;2023-08-08T08:45:22;95114.75;;;25.55;43.38
6134;BME280;3098;42.678;23.364;2023-08-08T08:47:52;95123.31;;;23.78;47.08
6134;BME280;3098;42.678;23.364;2023-08-08T08:50:24;95129.06;;;23.41;49.04
6134;BME280;3098;42.678;23.364;2023-08-08T08:52:56;95043.91;;;22.93;49.09
6134;BME280;3098;42.678;23.364;2023-08-08T08:55:25;95129.91;;;24.16;46.73
6134;BME280;3098;42.678;23.364;2023-08-08T08:57:55;95064.50;;;23.72;46.99
6134;BME280;3098;42.678;23.364;2023-08-08T09:00:23;95137.78;;;25.91;45.02
6134;BME280;3098;42.678;23.364;2023-08-08T09:02:52;95004.97;;;25.97;42.92
6134;BME280;3098;42.678;23.364;2023-08-08T09:05:20;95109.75;;;25.50;42.13
6134;BME280;3098;42.678;23.364;2023-08-08T09:07:49;95126.41;;;24.54;44.82
6134;BME280;3098;42.678;23.364;2023-08-08T09:10:19;95117.44;;;24.61;45.28
6134;BME280;3098;42.678;23.364;2023-08-08T09:12:47;95096.59;;;25.38;44.36
6134;BME280;3098;42.678;23.364;2023-08-08T09:15:14;94979.56;;;24.52;43.51
6134;BME280;3098;42.678;23.364;2023-08-08T09:17:42;95119.38;;;24.75;44.56
6134;BME280;3098;42.678;23.364;2023-08-08T09:20:11;95010.13;;;22.55;47.21
6134;BME280;3098;42.678;23.364;2023-08-08T09:22:40;95124.22;;;22.78;50.81
6134;BME280;3098;42.678;23.364;2023-08-08T09:25:07;95049.78;;;23.44;48.98
6134;BME280;3098;42.678;23.364;2023-08-08T09:27:36;95020.69;;;22.81;48.68
6134;BME280;3098;42.678;23.364;2023-08-08T09:30:05;94967.19;;;22.32;49.46
6134;BME280;3098;42.678;23.364;2023-08-08T09:32:34;94998.34;;;23.73;47.68
6134;BME280;3098;42.678;23.364;2023-08-08T09:35:02;95143.41;;;23.60;48.01
6134;BME280;3098;42.678;23.364;2023-08-08T09:37:35;95048.19;;;23.15;48.77
6134;BME280;3098;42.678;23.364;2023-08-08T09:40:04;95131.44;;;24.38;46.76
6134;BME280;3098;42.678;23.364;2023-08-08T09:42:33;94893.84;;;23.89;45.12
6134;BME280;3098;42.678;23.364;2023-08-08T09:45:03;95138.09;;;26.00;43.91
6134;BME280;3098;42.678;23.364;2023-08-08T09:47:31;95119.13;;;27.16;41.28
6134;BME280;3098;42.678;23.364;2023-08-08T09:49:59;95096.75;;;27.28;40.84
6134;BME280;3098;42.678;23.364;2023-08-08T09:52:27;95136.91;;;27.81;39.54
6134;BME280;3098;42.678;23.364;2023-08-08T09:54:55;94918.00;;;25.11;40.55
6134;BME280;3098;42.678;23.364;2023-08-08T09:57:23;95012.38;;;25.48;42.07
6134;BME280;3098;42.678;23.364;2023-08-08T09:59:51;95058.28;;;25.25;42.58
6134;BME280;3098;42.678;23.364;2023-08-08T10:02:21;95002.94;;;24.04;43.38
6134;BME280;3098;42.678;23.364;2023-08-08T10:04:48;95130.16;;;24.99;43.84
6134;BME280;3098;42.678;23.364;2023-08-08T10:07:16;95129.91;;;23.91;45.53
6134;BME280;3098;42.678;23.364;2023-08-08T10:09:43;95035.81;;;23.04;46.89
6134;BME280;3098;42.678;23.364;2023-08-08T10:12:11;95138.00;;;23.60;46.74
6134;BME280;3098;42.678;23.364;2023-08-08T10:14:42;95066.38;;;23.36;47.50
6134;BME280;3098;42.678;23.364;2023-08-08T10:17:13;95124.13;;;24.14;47.62
6134;BME280;3098;42.678;23.364;2023-08-08T10:19:51;94977.00;;;24.07;45.90
6134;BME280;3098;42.678;23.364;2023-08-08T10:22:21;95121.69;;;24.69;45.48
6134;BME280;3098;42.678;23.364;2023-08-08T10:24:51;95080.75;;;23.86;46.71
6134;BME280;3098;42.678;23.364;2023-08-08T10:27:28;94990.56;;;24.10;46.05
6134;BME280;3098;42.678;23.364;2023-08-08T10:30:02;95124.72;;;26.27;43.46
6134;BME280;3098;42.678;23.364;2023-08-08T10:32:38;95120.16;;;26.10;43.30
6134;BME280;3098;42.678;23.364;2023-08-08T10:35:08;95129.03;;;24.72;44.83
6134;BME280;3098;42.678;23.364;2023-08-08T10:37:36;95124.53;;;25.38;45.33
6134;BME280;3098;42.678;23.364;2023-08-08T10:40:05;95075.09;;;24.99;43.79
6134;BME280;3098;42.678;23.364;2023-08-08T10:42:41;94964.97;;;24.29;43.66
6134;BME280;3098;42.678;23.364;2023-08-08T10:45:10;95035.34;;;24.53;45.08
6134;BME280;3098;42.678;23.364;2023-08-08T10:47:39;95032.59;;;24.64;44.50
6134;BME280;3098;42.678;23.364;2023-08-08T10:50:10;95098.94;;;24.24;46.86
6134;BME280;3098;42.678;23.364;2023-08-08T10:52:49;94980.88;;;24.16;45.87
6134;BME280;3098;42.678;23.364;2023-08-08T10:55:21;95071.78;;;24.45;45.86
6134;BME280;3098;42.678;23.364;2023-08-08T10:57:57;95107.44;;;24.33;46.49
6134;BME280;3098;42.678;23.364;2023-08-08T11:00:30;95052.91;;;23.75;46.09
6134;BME280;3098;42.678;23.364;2023-08-08T11:02:59;95082.97;;;24.69;45.21
6134;BME280;3098;42.678;23.364;2023-08-08T11:05:30;95098.69;;;25.75;44.17
6134;BME280;3098;42.678;23.364;2023-08-08T11:07:58;95035.97;;;26.03;42.74
6134;BME280;3098;42.678;23.364;2023-08-08T11:10:26;95003.72;;;25.60;42.41
6134;BME280;3098;42.678;23.364;2023-08-08T11:12:57;94983.50;;;26.06;41.11
6134;BME280;3098;42.678;23.364;2023-08-08T11:15:25;95095.22;;;26.59;41.61
6134;BME280;3098;42.678;23.364;2023-08-08T11:17:53;95068.22;;;25.53;42.75
6134;BME280;3098;42.678;23.364;2023-08-08T11:20:20;95081.44;;;25.44;43.68
6134;BME280;3098;42.678;23.364;2023-08-08T11:22:54;95090.38;;;25.48;44.16
6134;BME280;3098;42.678;23.364;2023-08-08T11:25:26;95079.53;;;25.92;42.78
6134;BME280;3098;42.678;23.364;2023-08-08T11:27:54;95040.69;;;25.51;42.16
6134;BME280;3098;42.678;23.364;2023-08-08T11:30:22;95048.75;;;26.06;41.98
6134;BME280;3098;42.678;23.364;2023-08-08T11:32:51;95087.50;;;26.54;42.16
6134;BME280;3098;42.678;23.364;2023-08-08T11:35:21;95013.88;;;26.38;41.04
6134;BME280;3098;42.678;23.364;2023-08-08T11:37:50;95027.72;;;26.51;41.58
6134;BME280;3098;42.678;23.364;2023-08-08T11:40:25;95076.50;;;26.31;41.73
6134;BME280;3098;42.678;23.364;2023-08-08T11:42:53;95078.25;;;25.59;42.79
6134;BME280;3098;42.678;23.364;2023-08-08T11:45:21;94962.19;;;24.43;43.52
6134;BME280;3098;42.678;23.364;2023-08-08T11:47:49;94974.25;;;25.07;42.92
6134;BME280;3098;42.678;23.364;2023-08-08T11:50:19;95033.34;;;24.68;43.77
6134;BME280;3098;42.678;23.364;2023-08-08T11:52:50;95085.78;;;24.26;45.27
6134;BME280;3098;42.678;23.364;2023-08-08T11:55:18;95035.88;;;23.57;45.97
6134;BME280;3098;42.678;23.364;2023-08-08T11:57:49;95036.63;;;23.32;47.38
6134;BME280;3098;42.678;23.364;2023-08-08T12:00:16;95070.47;;;22.73;48.41
6134;BME280;3098;42.678;23.364;2023-08-08T12:02:43;95016.13;;;22.17;49.85
6134;BME280;3098;42.678;23.364;2023-08-08T12:05:12;94922.34;;;21.45;50.51
6134;BME280;3098;42.678;23.364;2023-08-08T12:07:43;95063.13;;;22.67;49.80
6134;BME280;3098;42.678;23.364;2023-08-08T12:10:15;95003.03;;;22.19;49.42
6134;BME280;3098;42.678;23.364;2023-08-08T12:12:44;95018.16;;;22.38;50.10
6134;BME280;3098;42.678;23.364;2023-08-08T12:15:14;95003.03;;;22.22;50.29
6134;BME280;3098;42.678;23.364;2023-08-08T12:17:42;94935.03;;;21.99;50.06
6134;BME280;3098;42.678;23.364;2023-08-08T12:20:10;95046.53;;;22.75;50.34
6134;BME280;3098;42.678;23.364;2023-08-08T12:22:38;94879.31;;;21.73;50.27
6134;BME280;3098;42.678;23.364;2023-08-08T12:25:06;94628.66;;;20.57;49.21
6134;BME280;3098;42.678;23.364;2023-08-08T12:27:33;94782.22;;;21.12;49.50
6134;BME280;3098;42.678;23.364;2023-08-08T12:30:05;95043.66;;;22.44;50.23
6134;BME280;3098;42.678;23.364;2023-08-08T12:32:42;95068.38;;;22.46;50.72
6134;BME280;3098;42.678;23.364;2023-08-08T12:35:10;94933.72;;;21.79;50.84
6134;BME280;3098;42.678;23.364;2023-08-08T12:37:37;95060.03;;;22.72;51.09
6134;BME280;3098;42.678;23.364;2023-08-08T12:40:05;95061.09;;;22.50;50.52
6134;BME280;3098;42.678;23.364;2023-08-08T12:42:32;95045.63;;;22.54;50.35
6134;BME280;3098;42.678;23.364;2023-08-08T12:45:00;94829.94;;;21.04;50.68
6134;BME280;3098;42.678;23.364;2023-08-08T12:47:27;95031.88;;;22.80;49.96
6134;BME280;3098;42.678;23.364;2023-08-08T12:49:56;95009.63;;;22.28;50.60
6134;BME280;3098;42.678;23.364;2023-08-08T12:52:23;95034.47;;;22.59;50.97
6134;BME280;3098;42.678;23.364;2023-08-08T12:54:51;95005.50;;;22.56;51.99
6134;BME280;3098;42.678;23.364;2023-08-08T12:57:18;95000.53;;;22.65;50.61
6134;BME280;3098;42.678;23.364;2023-08-08T12:59:48;94982.72;;;22.53;50.67
6134;BME280;3098;42.678;23.364;2023-08-08T13:02:16;95029.63;;;23.07;50.09
6134;BME280;3098;42.678;23.364;2023-08-08T13:04:44;94978.59;;;22.98;50.43
6134;BME280;3098;42.678;23.364;2023-08-08T13:07:12;95023.50;;;23.49;49.34
6134;BME280;3098;42.678;23.364;2023-08-08T13:09:40;95017.25;;;22.99;49.40
6134;BME280;3098;42.678;23.364;2023-08-08T13:12:09;94910.34;;;22.11;50.35